Lake, Michigan
Current Conditions -  °F | °C
As of 1:39 AM on Saturday 25 Oct 2014 (Local Time) from KMOP Reporting Station
Haze Haze  
Wind Chill: 42°   Ceiling: 700
Heat Index: 42°   Visibility: 1mi
Dew Point: 41°   Wind: 0mph
Humidity: 97%   Direction: NA
Pressure: 29.89"   Gusts: NA
Location:  43.85°N, 85.01°W
Report Text: KMOP 250539Z AUTO 00000KT 1SM BR VV007 06/05 A2989 RMK AO2 VIS 1/4V4 T00550050
Loading
Personal Weather Stations






























Interactive Weather Map
Tropical Storm Tracking
New forecast layout! Learn more

10-Day Weather Forecast

Advertisements
Track Severe Weather on mobile